createdAt,value
2018-05-11T00:01:46.151Z,98909.41
2018-05-11T00:04:13.702Z,98900.98
2018-05-11T00:06:41.194Z,98899.69
2018-05-11T00:09:08.656Z,98899.14
2018-05-11T00:11:36.182Z,98899.86
2018-05-11T00:14:03.719Z,98899.14
2018-05-11T00:16:31.199Z,98899.69
2018-05-11T00:18:58.658Z,98897.27
2018-05-11T00:21:26.140Z,98898.00
2018-05-11T00:23:53.598Z,98895.39
2018-05-11T00:26:21.086Z,98895.85
2018-05-11T00:28:48.558Z,98889.72
2018-05-11T00:31:16.054Z,98893.17
2018-05-11T00:33:43.519Z,98894.68
2018-05-11T00:36:11.073Z,98892.88
2018-05-11T00:38:38.626Z,98887.91
2018-05-11T00:41:06.098Z,98886.30
2018-05-11T00:43:33.583Z,98878.83
2018-05-11T00:46:01.051Z,98883.28
2018-05-11T00:48:28.541Z,98882.28
2018-05-11T00:50:56.126Z,98880.45
2018-05-11T00:53:24.638Z,98879.83
2018-05-11T00:55:52.102Z,98880.41
2018-05-11T00:58:19.662Z,98875.62
2018-05-11T01:00:47.182Z,98871.35
2018-05-11T01:03:14.669Z,98874.22
2018-05-11T01:05:42.134Z,98874.91
2018-05-11T01:08:09.663Z,98864.40
2018-05-11T01:10:37.207Z,98864.50
2018-05-11T01:13:04.766Z,98862.50
2018-05-11T01:15:32.223Z,98864.52
2018-05-11T01:17:59.713Z,98858.97
2018-05-11T01:20:27.243Z,98856.23
2018-05-11T01:22:54.799Z,98855.95
2018-05-11T01:25:22.258Z,98849.03
2018-05-11T01:27:49.751Z,98846.59
2018-05-11T01:30:17.217Z,98844.60
2018-05-11T01:32:44.711Z,98853.42
2018-05-11T01:35:12.166Z,98855.52
2018-05-11T01:37:39.751Z,98856.03
2018-05-11T01:40:07.239Z,98852.89
2018-05-11T01:42:34.720Z,98850.16
2018-05-11T01:45:02.191Z,98851.24
2018-05-11T01:47:29.650Z,98846.41
2018-05-11T01:49:57.162Z,98846.93
2018-05-11T01:52:24.747Z,98847.63
2018-05-11T01:54:52.256Z,98841.13
2018-05-11T01:57:19.788Z,98842.01
2018-05-11T01:59:47.268Z,98842.36
2018-05-11T02:02:14.762Z,98831.25
2018-05-11T02:04:42.262Z,98830.16
2018-05-11T02:07:09.799Z,98830.73
2018-05-11T02:09:37.334Z,98828.24
2018-05-11T02:12:04.817Z,98827.36
2018-05-11T02:14:32.318Z,98823.33
2018-05-11T02:16:59.782Z,98827.59
2018-05-11T02:19:27.268Z,98823.44
2018-05-11T02:21:54.735Z,98832.63
2018-05-11T02:24:22.288Z,98828.37
2018-05-11T02:26:49.849Z,98833.22
2018-05-11T02:29:17.418Z,98825.91
2018-05-11T02:31:44.895Z,98829.95
2018-05-11T02:34:12.403Z,98829.03
2018-05-11T02:36:39.884Z,98829.39
2018-05-11T02:39:07.369Z,98819.30
2018-05-11T02:41:34.825Z,98821.72
2018-05-11T02:44:02.362Z,98823.27
2018-05-11T02:46:29.820Z,98823.34
2018-05-11T02:48:57.357Z,98815.53
2018-05-11T02:51:24.862Z,98814.61
2018-05-11T02:53:52.411Z,98814.02
2018-05-11T02:56:19.902Z,98809.69
2018-05-11T02:58:47.405Z,98810.70
2018-05-11T03:01:14.968Z,98814.78
2018-05-11T03:03:42.631Z,98808.94
2018-05-11T03:06:10.334Z,98813.54
2018-05-11T03:08:37.848Z,98808.75
2018-05-11T03:11:05.342Z,98807.69
2018-05-11T03:13:32.817Z,98804.16
2018-05-11T03:16:00.312Z,98804.39
2018-05-11T03:18:27.829Z,98805.44
2018-05-11T03:20:55.278Z,98807.81
2018-05-11T03:23:22.742Z,98813.82
2018-05-11T03:25:50.226Z,98811.66
2018-05-11T03:28:18.122Z,98812.60
2018-05-11T03:30:45.635Z,98808.89
2018-05-11T03:33:13.144Z,98802.11
2018-05-11T03:35:40.631Z,98804.46
2018-05-11T03:38:08.090Z,98810.83
2018-05-11T03:40:35.614Z,98809.05
2018-05-11T03:43:03.075Z,98806.47
2018-05-11T03:45:30.566Z,98807.50
2018-05-11T03:47:58.027Z,98807.67
2018-05-11T03:50:25.518Z,98811.70
2018-05-11T03:52:52.990Z,98808.58
2018-05-11T03:55:20.489Z,98800.35
2018-05-11T03:57:47.955Z,98807.70
2018-05-11T04:00:15.462Z,98807.05
2018-05-11T04:02:54.899Z,98814.44
2018-05-11T04:05:34.265Z,98809.16
2018-05-11T04:08:14.555Z,98823.52
2018-05-11T04:10:42.079Z,98824.28
2018-05-11T04:13:09.559Z,98827.17
2018-05-11T04:15:37.071Z,98824.00
2018-05-11T04:18:05.545Z,98822.41
2018-05-11T04:20:33.015Z,98826.98
2018-05-11T04:23:00.594Z,98826.56
2018-05-11T04:25:29.074Z,98830.86
2018-05-11T04:27:56.563Z,98827.76
2018-05-11T04:30:24.073Z,98833.48
2018-05-11T04:32:51.571Z,98824.55
2018-05-11T04:35:19.040Z,98830.14
2018-05-11T04:37:46.544Z,98832.39
2018-05-11T04:40:14.023Z,98833.41
2018-05-11T04:42:41.519Z,98827.81
2018-05-11T04:45:09.106Z,98831.97
2018-05-11T04:47:36.603Z,98845.53
2018-05-11T04:50:04.074Z,98843.27
2018-05-11T04:52:31.663Z,98843.28
2018-05-11T04:54:59.159Z,98847.23
2018-05-11T04:57:26.650Z,98845.96
2018-05-11T04:59:54.115Z,98849.30
2018-05-11T05:02:21.610Z,98843.76
2018-05-11T05:04:49.086Z,98850.42
2018-05-11T05:07:16.578Z,98846.80
2018-05-11T05:09:44.064Z,98843.42
2018-05-11T05:12:11.567Z,98847.19
2018-05-11T05:14:39.050Z,98850.63
2018-05-11T05:17:06.608Z,98854.03
2018-05-11T05:19:34.086Z,98849.48
2018-05-11T05:22:01.627Z,98843.79
2018-05-11T05:24:29.100Z,98854.16
2018-05-11T05:26:56.643Z,98856.46
2018-05-11T05:29:24.193Z,98851.27
2018-05-11T05:31:51.704Z,98857.25
2018-05-11T05:34:19.210Z,98857.34
2018-05-11T05:36:46.708Z,98859.34
2018-05-11T05:39:14.213Z,98856.19
2018-05-11T05:41:41.694Z,98849.87
2018-05-11T05:44:09.195Z,98855.13
2018-05-11T05:46:36.690Z,98854.38
2018-05-11T05:49:04.186Z,98848.61
2018-05-11T05:51:31.730Z,98850.45
2018-05-11T05:53:59.415Z,98856.66
2018-05-11T05:56:26.900Z,98856.27
2018-05-11T05:58:54.452Z,98854.17
2018-05-11T06:01:21.954Z,98854.20
2018-05-11T06:03:49.526Z,98860.66
2018-05-11T06:06:17.013Z,98861.80
2018-05-11T06:08:44.538Z,98858.63
2018-05-11T06:11:12.010Z,98859.91
2018-05-11T06:13:39.503Z,98858.25
2018-05-11T06:16:06.989Z,98856.77
2018-05-11T06:18:35.305Z,98856.23
2018-05-11T06:21:02.779Z,98858.25
2018-05-11T06:23:30.353Z,98855.75
2018-05-11T06:25:57.844Z,98860.70
2018-05-11T06:28:25.444Z,98865.95
2018-05-11T06:30:52.915Z,98852.84
2018-05-11T06:33:20.417Z,98851.42
2018-05-11T06:35:47.886Z,98849.45
2018-05-11T06:38:15.367Z,98847.84
2018-05-11T06:40:42.869Z,98851.13
2018-05-11T06:43:10.525Z,98841.20
2018-05-11T06:45:38.069Z,98846.70
2018-05-11T06:48:05.563Z,98836.83
2018-05-11T06:50:33.064Z,98841.92
2018-05-11T06:53:00.565Z,98836.66
2018-05-11T06:55:28.082Z,98839.03
2018-05-11T06:57:55.551Z,98829.88
2018-05-11T07:00:23.095Z,98833.66
2018-05-11T07:02:50.578Z,98823.70
2018-05-11T07:05:19.794Z,98815.59
2018-05-11T07:07:47.418Z,98818.25
2018-05-11T07:10:14.839Z,98825.75
2018-05-11T07:12:42.313Z,98813.37
2018-05-11T07:15:09.815Z,98824.35
2018-05-11T07:17:37.306Z,98814.55
2018-05-11T07:20:04.802Z,98816.56
2018-05-11T07:22:32.294Z,98812.20
2018-05-11T07:24:59.831Z,98811.34
2018-05-11T07:27:27.478Z,98807.56
2018-05-11T07:29:54.995Z,98806.48
2018-05-11T07:32:22.501Z,98798.19
2018-05-11T07:34:50.015Z,98806.25
2018-05-11T07:37:17.522Z,98805.27
2018-05-11T07:39:45.030Z,98804.52
2018-05-11T07:42:12.552Z,98803.80
2018-05-11T07:44:40.135Z,98798.19
2018-05-11T07:47:07.655Z,98792.73
2018-05-11T07:49:35.122Z,98792.24
2018-05-11T07:52:02.667Z,98790.75
2018-05-11T07:54:30.230Z,98782.33
2018-05-11T07:56:59.805Z,98784.23
2018-05-11T07:59:27.495Z,98774.84
2018-05-11T08:01:55.022Z,98773.23
2018-05-11T08:04:22.634Z,98768.92
2018-05-11T08:06:50.293Z,98774.87
2018-05-11T08:09:17.843Z,98773.73
2018-05-11T08:11:46.928Z,98770.58
2018-05-11T08:14:15.561Z,98777.19
2018-05-11T08:16:46.933Z,98763.79
2018-05-11T08:19:14.627Z,98766.59
2018-05-11T08:21:42.127Z,98764.18
2018-05-11T08:24:09.720Z,98760.98
2018-05-11T08:26:37.272Z,98755.06
2018-05-11T08:29:04.771Z,98749.73
2018-05-11T08:31:32.335Z,98752.53
2018-05-11T08:33:59.831Z,98758.22
2018-05-11T08:36:27.355Z,98759.93
2018-05-11T08:38:54.909Z,98754.27
2018-05-11T08:41:22.467Z,98749.85
2018-05-11T08:43:50.134Z,98743.66
2018-05-11T08:46:17.636Z,98744.56
2018-05-11T08:48:45.119Z,98741.22
2018-05-11T08:51:12.639Z,98745.38
2018-05-11T08:53:40.131Z,98737.64
2018-05-11T08:56:07.647Z,98740.33
2018-05-11T08:58:35.206Z,98741.07
2018-05-11T09:01:02.819Z,98735.45
2018-05-11T09:03:30.318Z,98733.16
2018-05-11T09:05:57.925Z,98731.34
2018-05-11T09:08:25.580Z,98737.32
2018-05-11T09:10:53.170Z,98729.11
2018-05-11T09:13:21.180Z,98730.88
2018-05-11T09:15:48.719Z,98726.28
2018-05-11T09:18:16.287Z,98723.50
2018-05-11T09:20:43.759Z,98732.59
2018-05-11T09:23:11.260Z,98729.98
2018-05-11T09:25:41.189Z,98726.64
2018-05-11T09:28:08.898Z,98725.42
2018-05-11T09:30:36.399Z,98714.64
2018-05-11T09:33:03.886Z,98719.00
2018-05-11T09:35:31.472Z,98717.20
2018-05-11T09:37:59.051Z,98714.38
2018-05-11T09:40:26.531Z,98713.37
2018-05-11T09:42:54.099Z,98715.98
2018-05-11T09:45:22.604Z,98718.27
2018-05-11T09:47:50.151Z,98715.30
2018-05-11T09:50:17.756Z,98709.12
2018-05-11T09:52:45.242Z,98712.81
2018-05-11T09:55:12.792Z,98709.33
2018-05-11T09:57:40.315Z,98707.86
2018-05-11T10:00:07.783Z,98713.27
2018-05-11T10:02:35.331Z,98710.23
2018-05-11T10:05:02.940Z,98704.44
2018-05-11T10:07:30.465Z,98704.36
2018-05-11T10:09:58.219Z,98705.23
2018-05-11T10:12:25.730Z,98709.95
2018-05-11T10:14:53.270Z,98709.36
2018-05-11T10:17:20.735Z,98706.02
2018-05-11T10:19:48.351Z,98702.00
2018-05-11T10:22:15.899Z,98707.20
2018-05-11T10:24:43.410Z,98704.19
2018-05-11T10:27:10.927Z,98709.77
2018-05-11T10:29:38.586Z,98698.33
2018-05-11T10:32:06.071Z,98694.94
2018-05-11T10:34:33.647Z,98699.69
2018-05-11T10:37:01.214Z,98695.36
2018-05-11T10:39:28.731Z,98692.03
2018-05-11T10:41:56.291Z,98686.31
2018-05-11T10:44:23.844Z,98691.31
2018-05-11T10:46:51.517Z,98680.08
2018-05-11T10:49:18.934Z,98688.55
2018-05-11T10:51:46.394Z,98688.11
2018-05-11T10:54:13.902Z,98684.36
2018-05-11T10:56:41.371Z,98680.91
2018-05-11T10:59:08.882Z,98681.11
2018-05-11T11:01:36.359Z,98672.70
2018-05-11T11:04:03.858Z,98679.13
2018-05-11T11:06:31.374Z,98669.24
2018-05-11T11:08:58.917Z,98670.58
2018-05-11T11:11:26.395Z,98671.53
2018-05-11T11:13:53.858Z,98671.48
2018-05-11T11:16:21.384Z,98661.16
2018-05-11T11:18:48.850Z,98663.80
2018-05-11T11:21:16.365Z,98665.73
2018-05-11T11:23:43.845Z,98665.09
2018-05-11T11:26:11.368Z,98664.76
2018-05-11T11:28:38.974Z,98665.94
2018-05-11T11:31:06.498Z,98658.28
2018-05-11T11:33:33.971Z,98651.27
2018-05-11T11:36:01.459Z,98646.53
2018-05-11T11:38:28.932Z,98645.52
2018-05-11T11:40:57.428Z,98642.81
2018-05-11T11:43:24.910Z,98640.81
2018-05-11T11:45:52.502Z,98638.42
2018-05-11T11:48:19.962Z,98637.28
2018-05-11T11:50:47.451Z,98630.28
2018-05-11T11:53:14.918Z,98627.65
2018-05-11T11:55:42.624Z,98631.00
2018-05-11T11:58:10.091Z,98624.00
2018-05-11T12:00:37.709Z,98623.13
2018-05-11T12:03:05.182Z,98616.13
2018-05-11T12:05:32.739Z,98615.10
2018-05-11T12:08:00.259Z,98620.76
2018-05-11T12:10:27.868Z,98603.19
2018-05-11T12:12:55.354Z,98611.39
2018-05-11T12:15:22.842Z,98606.64
2018-05-11T12:17:50.394Z,98609.56
2018-05-11T12:20:17.987Z,98594.61
2018-05-11T12:22:45.514Z,98591.27
2018-05-11T12:25:13.031Z,98592.77
2018-05-11T12:27:40.550Z,98592.80
2018-05-11T12:30:08.010Z,98587.09
2018-05-11T12:32:35.527Z,98584.20
2018-05-11T12:35:02.990Z,98577.55
2018-05-11T12:37:30.568Z,98575.13
2018-05-11T12:39:58.035Z,98576.06
2018-05-11T12:42:25.542Z,98572.41
2018-05-11T12:44:53.044Z,98578.31
2018-05-11T12:47:20.544Z,98574.42
2018-05-11T12:49:48.011Z,98579.52
2018-05-11T12:52:15.559Z,98567.37
2018-05-11T12:54:43.082Z,98568.66
2018-05-11T12:57:10.691Z,98568.50
2018-05-11T12:59:38.171Z,98567.41
2018-05-11T13:02:05.666Z,98565.27
2018-05-11T13:04:33.127Z,98553.63
2018-05-11T13:07:00.674Z,98550.59
2018-05-11T13:09:28.138Z,98551.66
2018-05-11T13:11:55.624Z,98548.49
2018-05-11T13:14:23.084Z,98543.35
2018-05-11T13:16:50.578Z,98535.34
2018-05-11T13:19:18.999Z,98537.16
2018-05-11T13:21:47.534Z,98529.44
2018-05-11T13:24:15.034Z,98521.59
2018-05-11T13:26:42.590Z,98521.84
2018-05-11T13:29:10.097Z,98513.88
2018-05-11T13:31:37.570Z,98505.68
2018-05-11T13:34:05.085Z,98500.87
2018-05-11T13:36:32.563Z,98504.20
2018-05-11T13:39:00.125Z,98499.93
2018-05-11T13:41:27.582Z,98496.77
2018-05-11T13:43:55.098Z,98491.52
2018-05-11T13:46:22.574Z,98501.22
2018-05-11T13:48:50.134Z,98488.76
2018-05-11T13:51:19.699Z,98484.13
2018-05-11T13:53:47.303Z,98485.83
2018-05-11T13:56:14.882Z,98488.78
2018-05-11T13:58:42.407Z,98481.98
2018-05-11T14:01:09.870Z,98477.95
2018-05-11T14:03:37.430Z,98480.34
2018-05-11T14:06:04.831Z,98470.69
2018-05-11T14:08:32.357Z,98468.90
2018-05-11T14:10:59.826Z,98477.81
2018-05-11T14:13:27.330Z,98467.54
2018-05-11T14:15:54.821Z,98467.95
2018-05-11T14:18:22.392Z,98459.20
2018-05-11T14:20:49.934Z,98468.46
2018-05-11T14:23:17.452Z,98461.50
2018-05-11T14:25:44.950Z,98457.12
2018-05-11T14:28:12.517Z,98458.48
2018-05-11T14:30:39.980Z,98453.11
2018-05-11T14:33:07.531Z,98451.83
2018-05-11T14:35:35.087Z,98449.11
2018-05-11T14:38:02.589Z,98444.57
2018-05-11T14:40:30.121Z,98443.84
2018-05-11T14:42:57.601Z,98447.55
2018-05-11T14:45:25.122Z,98439.53
2018-05-11T14:47:52.583Z,98430.10
2018-05-11T14:50:20.234Z,98424.27
2018-05-11T14:52:47.709Z,98428.08
2018-05-11T14:55:15.254Z,98424.55
2018-05-11T14:57:42.714Z,98420.75
2018-05-11T15:00:10.207Z,98416.86
2018-05-11T15:02:37.738Z,98412.79
2018-05-11T15:05:05.286Z,98410.48
2018-05-11T15:07:32.751Z,98410.61
2018-05-11T15:10:00.363Z,98417.77
2018-05-11T15:12:27.784Z,98406.51
2018-05-11T15:14:55.368Z,98402.93
2018-05-11T15:17:22.835Z,98401.55
2018-05-11T15:19:50.343Z,98409.52
2018-05-11T15:22:17.876Z,98405.31
2018-05-11T15:24:45.337Z,98396.59
2018-05-11T15:27:12.804Z,98395.97
2018-05-11T15:29:44.381Z,98385.25
2018-05-11T15:32:11.847Z,98400.22
2018-05-11T15:34:39.334Z,98400.63
2018-05-11T15:37:06.791Z,98392.64
2018-05-11T15:39:34.270Z,98401.32
2018-05-11T15:42:01.768Z,98391.29
2018-05-11T15:44:29.287Z,98393.21
2018-05-11T15:46:56.784Z,98392.87
2018-05-11T15:49:24.262Z,98397.78
2018-05-11T15:51:51.828Z,98389.19
2018-05-11T15:54:19.351Z,98390.86
2018-05-11T15:56:46.815Z,98391.59
2018-05-11T15:59:14.313Z,98392.44
2018-05-11T16:01:41.937Z,98396.65
2018-05-11T16:04:09.399Z,98398.05
2018-05-11T16:06:36.938Z,98392.97
2018-05-11T16:09:04.421Z,98397.75
2018-05-11T16:11:32.008Z,98391.65
2018-05-11T16:13:59.533Z,98386.23
2018-05-11T16:16:27.023Z,98394.21
2018-05-11T16:18:54.502Z,98399.27
2018-05-11T16:21:21.994Z,98398.33
2018-05-11T16:23:49.535Z,98389.65
2018-05-11T16:26:17.032Z,98394.73
2018-05-11T16:28:44.593Z,98387.13
2018-05-11T16:31:12.090Z,98391.98
2018-05-11T16:33:39.642Z,98395.25
2018-05-11T16:36:07.137Z,98388.53
2018-05-11T16:38:34.624Z,98390.22
2018-05-11T16:41:02.123Z,98387.80
2018-05-11T16:43:29.635Z,98397.06
2018-05-11T16:45:57.192Z,98383.86
2018-05-11T16:48:24.676Z,98392.72
2018-05-11T16:50:52.173Z,98385.05
2018-05-11T16:53:19.651Z,98388.23
2018-05-11T16:55:47.276Z,98379.84
2018-05-11T16:58:14.761Z,98385.35
2018-05-11T17:00:42.389Z,98385.61
2018-05-11T17:03:09.898Z,98381.48
2018-05-11T17:05:37.486Z,98383.85
2018-05-11T17:08:05.023Z,98381.34
2018-05-11T17:10:32.603Z,98381.25
2018-05-11T17:13:00.149Z,98381.14
2018-05-11T17:15:27.618Z,98382.98
2018-05-11T17:17:55.171Z,98381.70
2018-05-11T17:20:22.643Z,98381.73
2018-05-11T17:22:50.161Z,98375.13
2018-05-11T17:25:17.622Z,98376.73
2018-05-11T17:27:45.199Z,98382.30
2018-05-11T17:30:12.764Z,98381.19
2018-05-11T17:32:40.251Z,98373.27
2018-05-11T17:35:07.719Z,98374.84
2018-05-11T17:37:35.202Z,98374.69
2018-05-11T17:40:02.667Z,98374.41
2018-05-11T17:42:30.188Z,98378.91
2018-05-11T17:44:57.711Z,98381.58
2018-05-11T17:47:25.214Z,98380.93
2018-05-11T17:49:52.694Z,98372.86
2018-05-11T17:52:20.191Z,98366.40
2018-05-11T17:54:47.695Z,98369.34
2018-05-11T17:57:15.198Z,98368.72
2018-05-11T17:59:42.800Z,98370.08
2018-05-11T18:02:10.291Z,98372.38
2018-05-11T18:04:37.798Z,98374.09
2018-05-11T18:07:05.268Z,98376.34
2018-05-11T18:09:32.770Z,98382.27
2018-05-11T18:12:00.346Z,98388.62
2018-05-11T18:14:27.775Z,98384.12
2018-05-11T18:16:55.247Z,98387.23
2018-05-11T18:19:22.834Z,98385.30
2018-05-11T18:21:50.302Z,98385.08
2018-05-11T18:24:17.848Z,98389.06
2018-05-11T18:26:45.418Z,98391.33
2018-05-11T18:29:12.909Z,98387.72
2018-05-11T18:31:40.430Z,98392.66
2018-05-11T18:34:07.987Z,98395.19
2018-05-11T18:36:35.484Z,98390.02
2018-05-11T18:39:03.007Z,98388.02
2018-05-11T18:41:30.566Z,98399.69
2018-05-11T18:43:58.127Z,98395.30
2018-05-11T18:46:25.614Z,98397.24
2018-05-11T18:48:53.106Z,98394.57
2018-05-11T18:51:20.575Z,98399.74
2018-05-11T18:53:48.392Z,98406.79
2018-05-11T18:56:15.615Z,98402.55
2018-05-11T18:58:43.099Z,98404.50
2018-05-11T19:01:10.581Z,98407.50
2018-05-11T19:03:38.102Z,98405.44
2018-05-11T19:06:05.596Z,98411.33
2018-05-11T19:08:33.103Z,98416.30
2018-05-11T19:11:00.599Z,98414.56
2018-05-11T19:16:02.367Z,98429.50
2018-05-11T19:18:29.838Z,98431.69
2018-05-11T19:20:57.358Z,98426.50
2018-05-11T19:23:24.860Z,98440.94
2018-05-11T19:25:52.356Z,98441.72
2018-05-11T19:28:19.889Z,98449.03
2018-05-11T19:30:47.423Z,98445.06
2018-05-11T19:33:14.907Z,98451.97
2018-05-11T19:35:42.427Z,98456.26
2018-05-11T19:38:09.895Z,98456.45
2018-05-11T19:40:37.387Z,98453.14
2018-05-11T19:43:04.891Z,98451.99
2018-05-11T19:45:32.379Z,98460.36
2018-05-11T19:47:59.942Z,98457.31
2018-05-11T19:50:27.442Z,98460.02
2018-05-11T19:52:54.946Z,98460.75
2018-05-11T19:55:22.460Z,98462.09
2018-05-11T19:57:49.970Z,98465.58
2018-05-11T20:00:17.481Z,98465.62
2018-05-11T20:02:44.960Z,98464.88
2018-05-11T20:05:12.476Z,98468.65
2018-05-11T20:07:40.035Z,98463.23
2018-05-11T20:10:07.526Z,98468.58
2018-05-11T20:12:35.012Z,98475.36
2018-05-11T20:15:02.550Z,98482.27
2018-05-11T20:17:30.127Z,98486.42
2018-05-11T20:19:57.673Z,98488.22
2018-05-11T20:22:25.153Z,98489.39
2018-05-11T20:24:52.781Z,98490.92
2018-05-11T20:27:20.239Z,98493.03
2018-05-11T20:29:47.707Z,98493.53
2018-05-11T20:32:15.219Z,98493.29
2018-05-11T20:34:42.808Z,98493.45
2018-05-11T20:37:10.336Z,98500.22
2018-05-11T20:39:37.851Z,98495.66
2018-05-11T20:42:05.346Z,98493.97
2018-05-11T20:44:32.871Z,98497.83
2018-05-11T20:47:00.366Z,98503.91
2018-05-11T20:49:27.980Z,98500.73
2018-05-11T20:51:55.523Z,98505.64
2018-05-11T20:54:23.076Z,98510.53
2018-05-11T20:56:50.655Z,98512.39
2018-05-11T20:59:18.126Z,98514.41
2018-05-11T21:01:45.614Z,98511.80
2018-05-11T21:04:13.110Z,98511.44
2018-05-11T21:06:40.604Z,98512.96
2018-05-11T21:09:08.155Z,98512.38
2018-05-11T21:11:35.647Z,98519.95
2018-05-11T21:14:03.120Z,98529.21
2018-05-11T21:16:30.631Z,98522.31
2018-05-11T21:18:58.111Z,98520.55
2018-05-11T21:21:25.626Z,98524.83
2018-05-11T21:23:53.093Z,98514.97
2018-05-11T21:26:20.663Z,98508.36
2018-05-11T21:28:48.128Z,98507.83
2018-05-11T21:31:15.699Z,98511.44
2018-05-11T21:33:43.166Z,98511.92
2018-05-11T21:36:10.640Z,98517.68
2018-05-11T21:38:38.231Z,98515.24
2018-05-11T21:41:05.801Z,98515.48
2018-05-11T21:43:33.252Z,98506.70
2018-05-11T21:46:00.719Z,98505.66
2018-05-11T21:48:28.222Z,98507.25
2018-05-11T21:50:55.699Z,98514.51
2018-05-11T21:53:23.202Z,98521.01
2018-05-11T21:55:50.768Z,98523.53
2018-05-11T21:58:18.289Z,98521.87
2018-05-11T22:00:45.782Z,98523.59
2018-05-11T22:03:13.278Z,98520.61
2018-05-11T22:05:40.777Z,98523.19
2018-05-11T22:08:08.267Z,98522.30
2018-05-11T22:10:35.739Z,98523.07
2018-05-11T22:13:03.228Z,98524.10
2018-05-11T22:15:30.730Z,98525.21
2018-05-11T22:17:58.236Z,98533.25
2018-05-11T22:20:25.730Z,98525.73
2018-05-11T22:22:53.223Z,98525.08
2018-05-11T22:25:20.690Z,98521.87
2018-05-11T22:27:48.370Z,98517.73
2018-05-11T22:30:15.839Z,98511.33
2018-05-11T22:32:43.451Z,98514.34
2018-05-11T22:35:10.927Z,98519.12
2018-05-11T22:37:38.473Z,98524.66
2018-05-11T22:40:06.018Z,98521.03
2018-05-11T22:42:33.593Z,98526.61
2018-05-11T22:45:01.067Z,98526.93
2018-05-11T22:47:28.603Z,98527.02
2018-05-11T22:49:56.162Z,98521.11
2018-05-11T22:52:23.631Z,98521.70
2018-05-11T22:54:51.188Z,98525.88
2018-05-11T22:57:18.659Z,98526.61
2018-05-11T22:59:46.199Z,98526.38
2018-05-11T23:02:13.794Z,98528.90
2018-05-11T23:04:41.307Z,98519.84
2018-05-11T23:07:08.876Z,98518.34
2018-05-11T23:09:36.435Z,98519.34
2018-05-11T23:12:03.898Z,98516.69
2018-05-11T23:14:31.387Z,98517.98
2018-05-11T23:16:58.855Z,98521.50
2018-05-11T23:19:26.395Z,98516.47
2018-05-11T23:21:53.931Z,98518.38
2018-05-11T23:24:21.482Z,98508.94
2018-05-11T23:26:49.056Z,98510.03
2018-05-11T23:29:16.550Z,98512.76
2018-05-11T23:31:44.021Z,98510.73
2018-05-11T23:34:11.598Z,98516.00
2018-05-11T23:36:39.070Z,98516.00
2018-05-11T23:39:06.641Z,98516.51
2018-05-11T23:41:34.111Z,98513.31
2018-05-11T23:44:01.617Z,98520.55
2018-05-11T23:46:29.107Z,98516.73
2018-05-11T23:48:56.603Z,98514.91
2018-05-11T23:51:24.083Z,98513.76
2018-05-11T23:53:51.653Z,98517.50
2018-05-11T23:56:19.126Z,98519.52
2018-05-11T23:58:46.614Z,98516.93
